TimeEDT,TemperatureF,Dew PointF,Humidity,Sea Level PressureIn,VisibilityMPH,Wind Direction,Wind SpeedMPH,Gust SpeedMPH,PrecipitationIn,Events,Conditions,WindDirDegrees,DateUTC
12:54 AM,51.1,46.9,86,30.26,-9999.0,Calm,Calm,-,N/A,,Unknown,0,2013-09-29 04:54:00
1:54 AM,48.9,45.0,86,30.25,-9999.0,Calm,Calm,-,N/A,,Unknown,0,2013-09-29 05:54:00
2:54 AM,48.0,45.0,89,30.23,-9999.0,Calm,Calm,-,N/A,,Unknown,0,2013-09-29 06:54:00
3:54 AM,48.0,45.0,89,30.22,-9999.0,Calm,Calm,-,N/A,,Unknown,0,2013-09-29 07:54:00
4:54 AM,51.1,48.9,92,30.21,-9999.0,Calm,Calm,-,N/A,,Unknown,0,2013-09-29 08:54:00
5:54 AM,57.0,54.0,89,30.21,-9999.0,NE,3.5,-,N/A,,Unknown,50,2013-09-29 09:54:00
6:54 AM,57.0,53.1,87,30.22,-9999.0,NE,3.5,-,N/A,,Unknown,40,2013-09-29 10:54:00
7:54 AM,57.9,53.1,84,30.24,-9999.0,NE,4.6,-,N/A,,Unknown,50,2013-09-29 11:54:00
8:54 AM,59.0,54.0,83,30.23,-9999.0,NNE,5.8,-,N/A,,Unknown,30,2013-09-29 12:54:00
9:54 AM,60.1,54.0,80,30.24,-9999.0,NE,5.8,-,N/A,,Unknown,40,2013-09-29 13:54:00
10:54 AM,61.0,52.0,72,30.22,-9999.0,NE,8.1,-,N/A,,Unknown,50,2013-09-29 14:54:00
11:54 AM,62.1,50.0,65,30.20,-9999.0,ENE,8.1,-,N/A,,Unknown,70,2013-09-29 15:54:00
12:54 PM,62.1,51.1,67,30.20,-9999.0,NE,9.2,-,N/A,,Unknown,50,2013-09-29 16:54:00
1:54 PM,63.0,51.1,65,30.18,-9999.0,Variable,5.8,-,N/A,,Unknown,0,2013-09-29 17:54:00
2:54 PM,63.0,51.1,65,30.16,-9999.0,NE,5.8,-,N/A,,Unknown,50,2013-09-29 18:54:00
3:54 PM,63.0,51.1,65,30.14,-9999.0,ENE,5.8,-,N/A,,Unknown,60,2013-09-29 19:54:00
4:54 PM,63.0,52.0,67,30.14,-9999.0,East,4.6,-,N/A,,Unknown,80,2013-09-29 20:54:00
5:54 PM,62.1,52.0,70,30.14,-9999.0,ENE,3.5,-,N/A,,Unknown,70,2013-09-29 21:54:00
6:54 PM,57.9,52.0,81,30.13,-9999.0,ENE,3.5,-,N/A,,Unknown,70,2013-09-29 22:54:00
7:54 PM,57.9,53.1,84,30.12,-9999.0,East,3.5,-,N/A,,Unknown,80,2013-09-29 23:54:00
8:54 PM,60.1,53.1,78,30.12,-9999.0,ENE,4.6,-,N/A,,Unknown,70,2013-09-30 00:54:00
9:54 PM,62.1,55.9,80,30.11,-9999.0,ENE,4.6,-,N/A,,Unknown,70,2013-09-30 01:54:00
10:54 PM,62.1,57.0,84,30.11,-9999.0,Variable,3.5,-,N/A,,Unknown,0,2013-09-30 02:54:00
11:54 PM,62.1,57.0,84,30.11,-9999.0,Variable,3.5,-,N/A,,Unknown,0,2013-09-30 03:54:00